createdAt,value
2018-01-30T00:01:55.998Z,1.40
2018-01-30T00:04:23.592Z,1.53
2018-01-30T00:06:51.924Z,1.77
2018-01-30T00:09:19.488Z,1.20
2018-01-30T00:11:47.177Z,1.70
2018-01-30T00:14:15.511Z,1.47
2018-01-30T00:16:43.081Z,1.80
2018-01-30T00:19:10.641Z,0.97
2018-01-30T00:21:38.232Z,1.30
2018-01-30T00:24:06.582Z,1.30
2018-01-30T00:26:34.158Z,1.07
2018-01-30T00:29:02.492Z,1.20
2018-01-30T00:31:30.047Z,1.23
2018-01-30T00:33:57.629Z,1.30
2018-01-30T00:36:25.190Z,1.27
2018-01-30T00:38:52.748Z,1.10
2018-01-30T00:41:20.320Z,1.10
2018-01-30T00:43:47.965Z,0.80
2018-01-30T00:46:15.576Z,0.90
2018-01-30T00:48:43.195Z,1.00
2018-01-30T00:51:10.742Z,1.03
2018-01-30T00:53:38.301Z,1.23
2018-01-30T00:56:05.974Z,1.00
2018-01-30T00:58:33.634Z,0.80
2018-01-30T01:01:01.199Z,1.83
2018-01-30T01:03:29.577Z,0.77
2018-01-30T01:05:57.905Z,1.00
2018-01-30T01:08:25.490Z,1.20
2018-01-30T01:10:53.119Z,0.90
2018-01-30T01:13:20.706Z,1.00
2018-01-30T01:15:48.251Z,0.80
2018-01-30T01:18:15.953Z,0.80
2018-01-30T01:20:44.284Z,0.80
2018-01-30T01:23:11.849Z,0.70
2018-01-30T01:25:39.407Z,1.60
2018-01-30T01:28:06.978Z,1.00
2018-01-30T01:30:34.540Z,0.70
2018-01-30T01:33:02.110Z,0.80
2018-01-30T01:35:29.678Z,0.63
2018-01-30T01:37:58.098Z,0.80
2018-01-30T01:40:25.703Z,0.73
2018-01-30T01:42:53.268Z,0.70
2018-01-30T01:45:21.586Z,0.70
2018-01-30T01:47:49.409Z,0.80
2018-01-30T01:50:17.738Z,1.03
2018-01-30T01:52:45.335Z,1.00
2018-01-30T01:55:12.910Z,1.00
2018-01-30T01:57:41.231Z,0.70
2018-01-30T02:00:08.811Z,0.93
2018-01-30T02:02:36.357Z,0.67
2018-01-30T02:05:03.983Z,0.60
2018-01-30T02:07:31.659Z,2.10
2018-01-30T02:09:59.244Z,0.70
2018-01-30T02:12:27.697Z,0.80
2018-01-30T02:14:55.270Z,0.90
2018-01-30T02:17:23.061Z,0.80
2018-01-30T02:19:50.733Z,1.13
2018-01-30T02:22:19.064Z,0.97
2018-01-30T02:24:46.631Z,1.10
2018-01-30T02:27:14.344Z,1.17
2018-01-30T02:29:42.752Z,1.53
2018-01-30T02:32:10.309Z,0.80
2018-01-30T02:34:37.903Z,0.90
2018-01-30T02:37:05.481Z,0.90
2018-01-30T02:39:33.819Z,0.90
2018-01-30T02:42:01.380Z,0.80
2018-01-30T02:44:28.964Z,1.10
2018-01-30T02:46:56.528Z,0.73
2018-01-30T02:49:24.888Z,0.87
2018-01-30T02:51:52.465Z,0.80
2018-01-30T02:54:20.892Z,0.70
2018-01-30T02:56:48.501Z,0.90
2018-01-30T02:59:16.141Z,1.60
2018-01-30T03:01:43.814Z,0.77
2018-01-30T03:04:11.458Z,0.70
2018-01-30T03:06:39.030Z,0.83
2018-01-30T03:09:06.698Z,0.80
2018-01-30T03:11:34.353Z,1.00
2018-01-30T03:14:01.944Z,0.97
2018-01-30T03:16:29.515Z,1.00
2018-01-30T03:18:57.088Z,1.40
2018-01-30T03:21:24.680Z,1.57
2018-01-30T03:23:52.254Z,0.90
2018-01-30T03:26:20.655Z,1.43
2018-01-30T03:28:48.281Z,0.80
2018-01-30T03:31:15.934Z,1.30
2018-01-30T03:33:43.521Z,1.10
2018-01-30T03:36:11.146Z,1.10
2018-01-30T03:38:38.717Z,1.83
2018-01-30T03:41:06.286Z,1.17
2018-01-30T03:43:34.603Z,1.40
2018-01-30T03:46:02.421Z,1.07
2018-01-30T03:48:31.482Z,1.33
2018-01-30T03:50:59.043Z,1.47
2018-01-30T03:53:26.606Z,1.00
2018-01-30T03:55:54.178Z,1.00
2018-01-30T03:58:21.722Z,1.67
2018-01-30T04:00:49.313Z,1.07
2018-01-30T04:03:17.656Z,1.77
2018-01-30T04:05:45.233Z,0.90
2018-01-30T04:08:12.797Z,1.10
2018-01-30T04:10:40.363Z,1.50
2018-01-30T04:13:08.705Z,1.40
2018-01-30T04:15:36.298Z,1.60
2018-01-30T04:18:04.660Z,1.33
2018-01-30T04:20:32.309Z,1.20
2018-01-30T04:22:59.973Z,1.50
2018-01-30T04:25:27.661Z,1.40
2018-01-30T04:27:56.028Z,1.47
2018-01-30T04:30:24.359Z,1.40
2018-01-30T04:32:51.958Z,1.30
2018-01-30T04:35:19.597Z,1.63
2018-01-30T04:37:47.158Z,1.90
2018-01-30T04:40:14.716Z,1.53
2018-01-30T04:42:42.319Z,1.57
2018-01-30T04:45:09.878Z,1.83
2018-01-30T04:47:37.505Z,1.30
2018-01-30T04:50:05.178Z,1.40
2018-01-30T04:52:33.518Z,1.20
2018-01-30T04:55:01.084Z,1.83
2018-01-30T04:57:28.755Z,1.43
2018-01-30T04:59:56.340Z,1.80
2018-01-30T05:02:24.688Z,1.40
2018-01-30T05:04:52.232Z,1.23
2018-01-30T05:07:19.821Z,1.43
2018-01-30T05:09:48.248Z,1.80
2018-01-30T05:12:15.856Z,1.20
2018-01-30T05:14:43.498Z,1.50
2018-01-30T05:17:11.057Z,2.20
2018-01-30T05:19:38.653Z,1.83
2018-01-30T05:22:06.206Z,2.90
2018-01-30T05:24:35.128Z,1.60
2018-01-30T05:27:02.712Z,1.67
2018-01-30T05:29:30.274Z,1.30
2018-01-30T05:31:57.855Z,1.53
2018-01-30T05:34:26.201Z,1.60
2018-01-30T05:36:53.803Z,1.30
2018-01-30T05:39:21.377Z,1.50
2018-01-30T05:41:48.985Z,1.57
2018-01-30T05:44:16.539Z,1.67
2018-01-30T05:46:44.226Z,2.00
2018-01-30T05:49:12.565Z,1.60
2018-01-30T05:51:40.153Z,1.60
2018-01-30T05:54:07.872Z,1.70
2018-01-30T05:56:35.421Z,1.40
2018-01-30T05:59:03.020Z,1.60
2018-01-30T06:01:30.576Z,1.60
2018-01-30T06:03:58.251Z,1.60
2018-01-30T06:06:25.817Z,1.93
2018-01-30T06:08:54.180Z,1.97
2018-01-30T06:11:21.755Z,1.27
2018-01-30T06:13:50.078Z,1.70
2018-01-30T06:16:17.749Z,1.30
2018-01-30T06:18:45.394Z,1.53
2018-01-30T06:21:13.057Z,1.83
2018-01-30T06:23:40.631Z,1.67
2018-01-30T06:26:08.423Z,1.10
2018-01-30T06:28:36.139Z,1.30
2018-01-30T06:31:03.730Z,1.93
2018-01-30T06:33:31.409Z,1.23
2018-01-30T06:35:59.737Z,2.37
2018-01-30T06:38:27.333Z,1.20
2018-01-30T06:40:54.953Z,1.70
2018-01-30T06:43:22.522Z,3.10
2018-01-30T06:45:50.098Z,1.37
2018-01-30T06:48:17.728Z,1.83
2018-01-30T06:50:45.315Z,3.40
2018-01-30T06:53:13.004Z,1.60
2018-01-30T06:55:41.339Z,2.40
2018-01-30T06:58:08.913Z,1.50
2018-01-30T07:00:36.488Z,2.27
2018-01-30T07:03:04.047Z,3.13
2018-01-30T07:05:31.803Z,1.57
2018-01-30T07:07:59.524Z,2.93
2018-01-30T07:10:27.078Z,2.60
2018-01-30T07:12:54.651Z,3.70
2018-01-30T07:15:22.215Z,2.17
2018-01-30T07:17:49.929Z,1.73
2018-01-30T07:20:17.503Z,1.90
2018-01-30T07:22:45.072Z,2.70
2018-01-30T07:25:12.652Z,6.33
2018-01-30T07:27:40.216Z,3.03
2018-01-30T07:30:07.801Z,2.10
2018-01-30T07:32:36.148Z,2.63
2018-01-30T07:35:03.722Z,2.27
2018-01-30T07:37:31.285Z,2.23
2018-01-30T07:39:58.830Z,3.70
2018-01-30T07:42:26.502Z,3.20
2018-01-30T07:44:54.094Z,1.70
2018-01-30T07:47:21.676Z,4.73
2018-01-30T07:49:49.240Z,2.07
2018-01-30T07:52:16.799Z,2.27
2018-01-30T07:54:44.370Z,2.03
2018-01-30T07:57:11.953Z,2.13
2018-01-30T07:59:39.617Z,2.83
2018-01-30T08:02:07.272Z,1.90
2018-01-30T08:04:34.983Z,2.20
2018-01-30T08:07:02.582Z,2.30
2018-01-30T08:09:30.162Z,1.57
2018-01-30T08:11:58.517Z,1.77
2018-01-30T08:14:26.070Z,1.43
2018-01-30T08:16:53.748Z,2.40
2018-01-30T08:19:21.314Z,1.50
2018-01-30T08:21:49.672Z,2.10
2018-01-30T08:24:17.221Z,1.90
2018-01-30T08:26:45.670Z,4.83
2018-01-30T08:29:13.260Z,1.33
2018-01-30T08:31:40.993Z,3.60
2018-01-30T08:34:08.572Z,1.47
2018-01-30T08:36:36.150Z,2.10
2018-01-30T08:39:03.735Z,1.10
2018-01-30T08:41:32.070Z,2.30
2018-01-30T08:43:59.631Z,1.00
2018-01-30T08:46:27.215Z,3.80
2018-01-30T08:48:55.546Z,1.23
2018-01-30T08:51:23.140Z,1.83
2018-01-30T08:53:50.699Z,1.23
2018-01-30T08:56:18.266Z,4.77
2018-01-30T08:58:46.612Z,17.90
2018-01-30T09:01:14.985Z,2.17
2018-01-30T09:03:42.578Z,1.20
2018-01-30T09:06:10.895Z,2.83
2018-01-30T09:08:38.500Z,4.47
2018-01-30T09:11:06.150Z,1.47
2018-01-30T09:13:35.251Z,1.70
2018-01-30T09:16:02.920Z,1.73
2018-01-30T09:18:30.576Z,1.60
2018-01-30T09:20:58.244Z,1.17
2018-01-30T09:23:26.618Z,16.17
2018-01-30T09:25:54.263Z,1.20
2018-01-30T09:28:21.922Z,2.23
2018-01-30T09:30:49.518Z,1.77
2018-01-30T09:33:17.210Z,1.33
2018-01-30T09:35:44.872Z,2.00
2018-01-30T09:38:12.440Z,1.40
2018-01-30T09:40:40.126Z,1.33
2018-01-30T09:43:07.689Z,1.50
2018-01-30T09:45:35.294Z,1.43
2018-01-30T09:48:02.904Z,4.20
2018-01-30T09:50:30.596Z,3.23
2018-01-30T09:52:58.191Z,1.90
2018-01-30T09:55:25.789Z,3.10
2018-01-30T09:57:53.352Z,1.47
2018-01-30T10:00:21.690Z,3.50
2018-01-30T10:02:49.282Z,2.60
2018-01-30T10:05:16.847Z,9.57
2018-01-30T10:07:45.175Z,5.13
2018-01-30T10:10:12.771Z,5.77
2018-01-30T10:12:40.336Z,1.90
2018-01-30T10:15:08.206Z,1.30
2018-01-30T10:17:36.544Z,1.60
2018-01-30T10:20:04.193Z,1.30
2018-01-30T10:22:31.778Z,1.30
2018-01-30T10:24:59.339Z,1.43
2018-01-30T10:27:26.945Z,1.47
2018-01-30T10:29:54.533Z,1.50
2018-01-30T10:32:22.124Z,1.07
2018-01-30T10:34:49.770Z,2.70
2018-01-30T10:37:17.331Z,3.17
2018-01-30T10:39:44.928Z,1.50
2018-01-30T10:42:12.494Z,1.60
2018-01-30T10:44:40.060Z,1.83
2018-01-30T10:47:07.678Z,1.30
2018-01-30T10:49:35.336Z,1.57
2018-01-30T10:52:02.949Z,1.60
2018-01-30T10:54:30.610Z,1.30
2018-01-30T10:56:58.159Z,1.70
2018-01-30T10:59:25.795Z,1.77
2018-01-30T11:01:54.204Z,2.40
2018-01-30T11:04:21.792Z,2.17
2018-01-30T11:06:49.342Z,2.13
2018-01-30T11:09:16.914Z,2.77
2018-01-30T11:11:44.498Z,1.73
2018-01-30T11:14:12.836Z,2.13
2018-01-30T11:16:40.422Z,4.97
2018-01-30T11:19:08.010Z,3.73
2018-01-30T11:21:35.691Z,2.00
2018-01-30T11:24:03.282Z,5.03
2018-01-30T11:26:30.965Z,1.40
2018-01-30T11:28:59.297Z,1.97
2018-01-30T11:31:26.880Z,1.33
2018-01-30T11:33:54.447Z,1.10
2018-01-30T11:36:22.170Z,8.47
2018-01-30T11:38:50.601Z,5.90
2018-01-30T11:41:18.970Z,2.37
2018-01-30T11:43:46.544Z,2.57
2018-01-30T11:46:14.890Z,2.60
2018-01-30T11:48:42.616Z,3.10
2018-01-30T11:51:10.201Z,3.80
2018-01-30T11:53:37.780Z,4.50
2018-01-30T11:56:05.362Z,4.50
2018-01-30T11:58:32.923Z,4.90
2018-01-30T12:01:00.704Z,5.30
2018-01-30T12:03:28.233Z,4.90
2018-01-30T12:05:56.647Z,4.60
2018-01-30T12:08:24.241Z,5.50
2018-01-30T12:10:51.799Z,5.40
2018-01-30T12:13:19.359Z,5.53
2018-01-30T12:15:47.035Z,5.67
2018-01-30T12:18:15.507Z,6.33
2018-01-30T12:20:43.154Z,6.40
2018-01-30T12:23:10.757Z,6.60
2018-01-30T12:25:38.380Z,5.83
2018-01-30T12:28:06.002Z,5.70
2018-01-30T12:30:33.668Z,5.90
2018-01-30T12:33:01.325Z,5.97
2018-01-30T12:35:28.876Z,5.47
2018-01-30T12:37:56.438Z,5.80
2018-01-30T12:40:24.036Z,4.37
2018-01-30T12:42:51.602Z,4.80
2018-01-30T12:45:19.951Z,5.70
2018-01-30T12:47:47.523Z,4.90
2018-01-30T12:50:15.079Z,5.40
2018-01-30T12:52:42.662Z,4.77
2018-01-30T12:55:11.053Z,5.47
2018-01-30T12:57:39.394Z,4.80
2018-01-30T13:00:06.977Z,4.60
2018-01-30T13:02:35.353Z,4.90
2018-01-30T13:05:03.830Z,3.97
2018-01-30T13:07:32.156Z,4.37
2018-01-30T13:09:59.720Z,6.43
2018-01-30T13:12:27.287Z,4.30
2018-01-30T13:14:54.838Z,3.83
2018-01-30T13:17:22.423Z,5.73
2018-01-30T13:19:50.805Z,4.50
2018-01-30T13:22:18.377Z,3.97
2018-01-30T13:24:46.714Z,5.30
2018-01-30T13:27:14.339Z,4.50
2018-01-30T13:29:41.954Z,3.87
2018-01-30T13:32:09.523Z,3.60
2018-01-30T13:34:37.885Z,4.63
2018-01-30T13:37:05.457Z,5.67
2018-01-30T13:39:33.819Z,4.87
2018-01-30T13:42:01.374Z,8.83
2018-01-30T13:44:28.936Z,5.60
2018-01-30T13:46:56.517Z,4.80
2018-01-30T13:49:24.847Z,5.60
2018-01-30T13:51:52.410Z,5.83
2018-01-30T13:54:19.961Z,4.83
2018-01-30T13:56:47.535Z,5.40
2018-01-30T13:59:15.091Z,4.13
2018-01-30T14:01:42.676Z,4.40
2018-01-30T14:04:11.004Z,6.20
2018-01-30T14:06:38.558Z,4.60
2018-01-30T14:09:06.213Z,5.70
2018-01-30T14:11:33.776Z,5.17
2018-01-30T14:14:01.365Z,4.23
2018-01-30T14:16:30.436Z,5.60
2018-01-30T14:18:57.982Z,4.03
2018-01-30T14:21:25.541Z,3.60
2018-01-30T14:23:53.118Z,4.33
2018-01-30T14:26:20.764Z,3.93
2018-01-30T14:28:48.417Z,3.77
2018-01-30T14:31:16.021Z,4.70
2018-01-30T14:33:43.848Z,4.27
2018-01-30T14:36:11.416Z,6.30
2018-01-30T14:38:38.975Z,4.63
2018-01-30T14:41:06.674Z,5.97
2018-01-30T14:43:35.028Z,13.53
2018-01-30T14:46:02.598Z,6.40
2018-01-30T14:48:30.196Z,4.47
2018-01-30T14:50:57.873Z,4.50
2018-01-30T14:53:25.435Z,5.20
2018-01-30T14:55:53.077Z,4.60
2018-01-30T14:58:20.654Z,4.50
2018-01-30T15:00:48.253Z,5.70
2018-01-30T15:03:15.846Z,4.80
2018-01-30T15:05:43.632Z,5.47
2018-01-30T15:08:11.238Z,4.20
2018-01-30T15:10:39.714Z,4.77
2018-01-30T15:13:07.384Z,5.10
2018-01-30T15:15:35.729Z,4.80
2018-01-30T15:18:03.330Z,19.07
2018-01-30T15:20:31.673Z,15.53
2018-01-30T15:22:59.326Z,9.07
2018-01-30T15:25:26.886Z,5.43
2018-01-30T15:27:54.465Z,12.00
2018-01-30T15:30:22.056Z,13.73
2018-01-30T15:32:49.661Z,6.67
2018-01-30T15:35:17.495Z,5.87
2018-01-30T15:37:45.056Z,6.03
2018-01-30T15:40:12.606Z,5.80
2018-01-30T15:42:40.218Z,5.23
2018-01-30T15:45:07.851Z,4.90
2018-01-30T15:47:35.525Z,10.80
2018-01-30T15:50:03.070Z,4.70
2018-01-30T15:52:30.629Z,4.97
2018-01-30T15:54:58.178Z,5.10
2018-01-30T15:57:25.823Z,5.50
2018-01-30T15:59:53.446Z,5.20
2018-01-30T16:02:21.781Z,6.90
2018-01-30T16:04:49.385Z,6.00
2018-01-30T16:07:17.712Z,6.83
2018-01-30T16:09:45.302Z,6.80
2018-01-30T16:12:12.890Z,6.50
2018-01-30T16:14:40.575Z,6.80
2018-01-30T16:17:08.183Z,6.53
2018-01-30T16:19:36.515Z,6.73
2018-01-30T16:22:04.063Z,6.27
2018-01-30T16:24:31.669Z,6.77
2018-01-30T16:26:59.229Z,6.70
2018-01-30T16:29:27.576Z,7.00
2018-01-30T16:31:55.134Z,7.37
2018-01-30T16:34:22.708Z,6.40
2018-01-30T16:36:50.397Z,7.43
2018-01-30T16:39:18.734Z,7.20
2018-01-30T16:41:46.285Z,7.90
2018-01-30T16:44:13.906Z,6.70
2018-01-30T16:46:41.461Z,7.37
2018-01-30T16:49:09.045Z,8.73
2018-01-30T16:51:36.681Z,7.73
2018-01-30T16:54:04.336Z,7.80
2018-01-30T16:56:32.661Z,8.33
2018-01-30T16:59:00.400Z,10.63
2018-01-30T17:01:27.973Z,8.53
2018-01-30T17:03:55.566Z,9.10
2018-01-30T17:06:23.234Z,9.47
2018-01-30T17:08:51.577Z,10.80
2018-01-30T17:11:19.176Z,8.60
2018-01-30T17:13:47.543Z,8.47
2018-01-30T17:16:15.131Z,8.43
2018-01-30T17:18:42.737Z,8.30
2018-01-30T17:21:10.340Z,9.20
2018-01-30T17:23:37.943Z,8.00
2018-01-30T17:26:05.519Z,8.93
2018-01-30T17:28:33.090Z,10.13
2018-01-30T17:31:00.763Z,7.97
2018-01-30T17:33:29.133Z,9.73
2018-01-30T17:35:57.477Z,10.67
2018-01-30T17:38:25.149Z,9.43
2018-01-30T17:40:52.723Z,9.50
2018-01-30T17:43:20.315Z,8.40
2018-01-30T17:45:47.865Z,9.13
2018-01-30T17:48:15.428Z,9.87
2018-01-30T17:50:43.059Z,11.20
2018-01-30T17:53:11.417Z,9.00
2018-01-30T17:55:39.030Z,9.57
2018-01-30T17:58:06.606Z,12.40
2018-01-30T18:00:34.174Z,10.30
2018-01-30T18:03:01.740Z,11.50
2018-01-30T18:05:29.326Z,10.90
2018-01-30T18:07:56.902Z,10.80
2018-01-30T18:10:25.257Z,10.73
2018-01-30T18:12:52.873Z,11.70
2018-01-30T18:15:20.490Z,10.90
2018-01-30T18:17:48.817Z,13.07
2018-01-30T18:20:16.388Z,10.90
2018-01-30T18:22:44.081Z,10.73
2018-01-30T18:25:12.440Z,10.67
2018-01-30T18:27:40.062Z,10.32
2018-01-30T18:30:07.685Z,10.17
2018-01-30T18:32:36.015Z,10.50
2018-01-30T18:35:03.825Z,9.60
2018-01-30T18:37:32.155Z,10.70
2018-01-30T18:39:59.737Z,10.90
2018-01-30T18:42:27.354Z,9.43
2018-01-30T18:44:54.933Z,10.60
2018-01-30T18:47:22.555Z,10.37
2018-01-30T18:49:50.176Z,10.10
2018-01-30T18:52:18.611Z,10.43
2018-01-30T18:54:46.216Z,11.27
2018-01-30T18:57:14.564Z,10.63
2018-01-30T18:59:42.258Z,10.70
2018-01-30T19:02:10.649Z,11.00
2018-01-30T19:04:38.999Z,10.90
2018-01-30T19:07:06.672Z,10.47
2018-01-30T19:09:35.018Z,12.10
2018-01-30T19:12:02.594Z,11.43
2018-01-30T19:14:30.174Z,16.40
2018-01-30T19:16:58.516Z,11.03
2018-01-30T19:19:26.095Z,13.43
2018-01-30T19:21:53.707Z,12.90
2018-01-30T19:24:21.266Z,11.53
2018-01-30T19:26:48.894Z,12.10
2018-01-30T19:29:17.357Z,11.57
2018-01-30T19:31:45.709Z,10.90
2018-01-30T19:34:13.310Z,11.30
2018-01-30T19:36:41.719Z,11.47
2018-01-30T19:39:09.327Z,13.23
2018-01-30T19:41:37.693Z,11.97
2018-01-30T19:44:05.260Z,12.27
2018-01-30T19:46:32.929Z,12.37
2018-01-30T19:49:01.254Z,17.00
2018-01-30T19:51:28.984Z,13.27
2018-01-30T19:53:56.671Z,12.03
2018-01-30T19:56:24.295Z,11.50
2018-01-30T19:58:51.932Z,11.47
2018-01-30T20:01:19.515Z,12.00
2018-01-30T20:03:47.855Z,13.90
2018-01-30T20:06:15.428Z,12.83
2018-01-30T20:08:43.010Z,12.93
2018-01-30T20:11:11.397Z,10.37
2018-01-30T20:13:39.555Z,11.90
2018-01-30T20:16:07.898Z,12.17
2018-01-30T20:18:35.487Z,10.87
2018-01-30T20:21:03.810Z,11.20
2018-01-30T20:23:31.384Z,12.00
2018-01-30T20:25:58.976Z,11.80
2018-01-30T20:28:27.517Z,10.90
2018-01-30T20:30:55.096Z,11.30
2018-01-30T20:33:22.650Z,11.50
2018-01-30T20:35:50.226Z,12.40
2018-01-30T20:38:18.558Z,13.30
2018-01-30T20:40:46.135Z,13.40
2018-01-30T20:43:13.911Z,13.63
2018-01-30T20:45:41.583Z,15.67
2018-01-30T20:48:09.974Z,15.17
2018-01-30T20:50:38.520Z,14.13
2018-01-30T20:53:06.073Z,15.03
2018-01-30T20:55:33.766Z,13.93
2018-01-30T20:58:02.135Z,15.43
2018-01-30T21:00:30.508Z,13.73
2018-01-30T21:02:58.868Z,15.77
2018-01-30T21:05:26.441Z,13.60
2018-01-30T21:07:54.157Z,15.53
2018-01-30T21:10:21.774Z,14.43
2018-01-30T21:12:50.149Z,16.10
2018-01-30T21:15:18.479Z,14.37
2018-01-30T21:17:46.101Z,14.97
2018-01-30T21:20:13.687Z,15.87
2018-01-30T21:22:41.271Z,13.93
2018-01-30T21:25:08.862Z,15.70
2018-01-30T21:27:37.179Z,15.87
2018-01-30T21:30:04.734Z,15.67
2018-01-30T21:32:32.303Z,14.80
2018-01-30T21:34:59.902Z,14.70
2018-01-30T21:37:27.485Z,15.37
2018-01-30T21:39:55.042Z,15.00
2018-01-30T21:42:22.632Z,15.27
2018-01-30T21:44:50.230Z,15.50
2018-01-30T21:47:17.815Z,13.57
2018-01-30T21:49:46.170Z,15.63
2018-01-30T21:52:13.765Z,15.13
2018-01-30T21:54:41.351Z,15.67
2018-01-30T21:57:08.931Z,15.50
2018-01-30T21:59:36.517Z,16.43
2018-01-30T22:02:04.867Z,15.97
2018-01-30T22:04:32.438Z,17.10
2018-01-30T22:06:59.991Z,16.23
2018-01-30T22:09:27.585Z,17.17
2018-01-30T22:11:55.270Z,17.37
2018-01-30T22:14:22.842Z,17.70
2018-01-30T22:16:50.406Z,17.40
2018-01-30T22:19:17.966Z,17.87
2018-01-30T22:21:45.557Z,16.67
2018-01-30T22:24:13.923Z,17.40
2018-01-30T22:26:41.504Z,16.03
2018-01-30T22:29:10.053Z,16.77
2018-01-30T22:31:37.630Z,18.27
2018-01-30T22:34:05.951Z,19.03
2018-01-30T22:36:33.572Z,21.40
2018-01-30T22:39:01.916Z,20.63
2018-01-30T22:41:29.594Z,19.63
2018-01-30T22:43:57.157Z,20.30
2018-01-30T22:46:24.816Z,19.93
